createdAt,value
2023-02-15T00:00:21.521Z,0.50
2023-02-15T00:02:48.675Z,0.50
2023-02-15T00:05:15.884Z,0.50
2023-02-15T00:07:42.833Z,0.40
2023-02-15T00:10:10.407Z,0.50
2023-02-15T00:12:37.377Z,0.40
2023-02-15T00:15:04.729Z,0.50
2023-02-15T00:17:31.723Z,0.50
2023-02-15T00:19:58.869Z,0.50
2023-02-15T00:22:27.059Z,0.40
2023-02-15T00:24:55.645Z,0.63
2023-02-15T00:27:22.621Z,0.50
2023-02-15T00:29:49.620Z,0.60
2023-02-15T00:32:16.680Z,0.50
2023-02-15T00:34:44.482Z,0.57
2023-02-15T00:37:11.530Z,0.60
2023-02-15T00:39:38.521Z,0.70
2023-02-15T00:42:05.540Z,0.50
2023-02-15T00:44:32.459Z,0.40
2023-02-15T00:47:00.660Z,0.40
2023-02-15T00:49:27.673Z,0.50
2023-02-15T00:51:54.696Z,0.73
2023-02-15T00:54:21.729Z,0.60
2023-02-15T00:56:48.650Z,0.30
2023-02-15T00:59:15.512Z,0.20
2023-02-15T01:01:42.611Z,0.80
2023-02-15T01:04:09.706Z,0.43
2023-02-15T01:06:37.317Z,0.40
2023-02-15T01:09:04.498Z,0.37
2023-02-15T01:11:31.520Z,0.40
2023-02-15T01:13:59.579Z,0.40
2023-02-15T01:16:28.984Z,0.40
2023-02-15T01:18:56.792Z,0.40
2023-02-15T01:21:25.862Z,0.30
2023-02-15T01:23:53.061Z,0.40
2023-02-15T01:26:20.213Z,0.37
2023-02-15T01:28:47.453Z,0.30
2023-02-15T01:31:18.746Z,0.30
2023-02-15T01:33:46.940Z,0.30
2023-02-15T01:36:14.474Z,0.67
2023-02-15T01:38:42.384Z,0.67
2023-02-15T01:41:21.934Z,0.70
2023-02-15T01:43:52.305Z,0.50
2023-02-15T01:46:23.321Z,0.30
2023-02-15T01:48:55.021Z,0.50
2023-02-15T01:51:25.474Z,0.40
2023-02-15T01:54:00.816Z,0.47
2023-02-15T01:56:33.407Z,0.47
2023-02-15T01:59:10.098Z,0.43
2023-02-15T02:01:37.741Z,0.40
2023-02-15T02:04:16.328Z,0.30
2023-02-15T02:06:43.693Z,0.43
2023-02-15T02:09:11.410Z,0.20
2023-02-15T02:11:40.483Z,0.43
2023-02-15T02:14:07.821Z,0.30
2023-02-15T02:16:46.772Z,0.40
2023-02-15T02:19:46.937Z,0.40
2023-02-15T02:22:32.999Z,0.33
2023-02-15T02:25:24.586Z,0.50
2023-02-15T02:28:14.283Z,0.40
2023-02-15T02:31:07.274Z,0.37
2023-02-15T02:33:49.362Z,0.40
2023-02-15T02:36:53.652Z,0.40
2023-02-15T02:39:57.052Z,0.37
2023-02-15T02:42:49.745Z,0.40
2023-02-15T02:45:33.880Z,0.43
2023-02-15T02:48:07.012Z,0.40
2023-02-15T02:50:34.061Z,0.40
2023-02-15T02:53:01.275Z,0.47
2023-02-15T02:55:46.462Z,0.47
2023-02-15T02:58:50.694Z,0.40
2023-02-15T03:01:30.841Z,0.37
2023-02-15T03:04:02.439Z,0.40
2023-02-15T03:06:35.256Z,0.40
2023-02-15T03:09:15.466Z,0.30
2023-02-15T03:11:45.180Z,0.27
2023-02-15T03:14:14.576Z,0.30
2023-02-15T03:16:44.806Z,0.30
2023-02-15T03:19:14.819Z,0.30
2023-02-15T03:22:10.778Z,0.40
2023-02-15T03:24:41.409Z,0.40
2023-02-15T03:27:20.489Z,0.20
2023-02-15T03:30:00.461Z,0.60
2023-02-15T03:32:30.687Z,0.30
2023-02-15T03:34:58.411Z,0.27
2023-02-15T03:37:36.567Z,0.20
2023-02-15T03:40:37.817Z,0.20
2023-02-15T03:43:46.636Z,0.30
2023-02-15T03:46:13.636Z,0.57
2023-02-15T03:48:52.170Z,0.23
2023-02-15T03:51:34.939Z,0.30
2023-02-15T03:54:07.713Z,0.50
2023-02-15T03:56:40.205Z,0.40
2023-02-15T03:59:25.535Z,0.20
2023-02-15T04:02:37.032Z,0.40
2023-02-15T04:05:04.127Z,0.30
2023-02-15T04:07:31.209Z,0.27
2023-02-15T04:10:16.768Z,0.27
2023-02-15T04:12:43.715Z,0.40
2023-02-15T04:15:32.447Z,0.20
2023-02-15T04:17:59.410Z,0.20
2023-02-15T04:20:44.654Z,0.20
2023-02-15T04:23:30.353Z,0.20
2023-02-15T04:25:57.239Z,0.20
2023-02-15T04:28:24.162Z,0.30
2023-02-15T04:30:51.181Z,0.37
2023-02-15T04:33:18.276Z,0.30
2023-02-15T04:35:46.252Z,0.20
2023-02-15T04:38:13.184Z,0.33
2023-02-15T04:40:40.066Z,0.20
2023-02-15T04:43:07.010Z,0.50
2023-02-15T04:45:34.130Z,0.40
2023-02-15T04:48:01.175Z,0.40
2023-02-15T04:50:28.120Z,0.40
2023-02-15T04:52:55.087Z,0.50
2023-02-15T04:55:22.290Z,0.80
2023-02-15T04:57:49.481Z,0.30
2023-02-15T05:00:16.940Z,0.50
2023-02-15T05:02:43.938Z,0.40
2023-02-15T05:05:14.047Z,0.40
2023-02-15T05:07:41.080Z,0.40
2023-02-15T05:10:08.884Z,0.30
2023-02-15T05:12:35.853Z,0.30
2023-02-15T05:15:03.014Z,0.30
2023-02-15T05:17:29.971Z,0.40
2023-02-15T05:19:56.966Z,0.40
2023-02-15T05:22:23.978Z,0.37
2023-02-15T05:25:09.730Z,0.50
2023-02-15T05:27:55.309Z,0.30
2023-02-15T05:30:22.370Z,0.30
2023-02-15T05:32:49.446Z,0.50
2023-02-15T05:35:17.337Z,0.30
2023-02-15T05:37:44.376Z,0.50
2023-02-15T05:40:12.023Z,0.50
2023-02-15T05:42:39.043Z,0.30
2023-02-15T05:45:06.862Z,0.50
2023-02-15T05:47:33.898Z,0.30
2023-02-15T05:50:00.870Z,0.53
2023-02-15T05:52:27.807Z,0.50
2023-02-15T05:54:55.358Z,0.83
2023-02-15T05:57:22.448Z,0.47
2023-02-15T05:59:49.426Z,0.47
2023-02-15T06:02:16.437Z,0.40
2023-02-15T06:04:43.450Z,0.30
2023-02-15T06:07:11.510Z,0.50
2023-02-15T06:09:39.331Z,0.60
2023-02-15T06:12:06.630Z,0.50
2023-02-15T06:14:34.415Z,0.63
2023-02-15T06:17:01.346Z,0.67
2023-02-15T06:19:31.175Z,0.40
2023-02-15T06:21:58.115Z,0.60
2023-02-15T06:24:25.124Z,0.67
2023-02-15T06:26:52.101Z,1.17
2023-02-15T06:29:19.066Z,0.47
2023-02-15T06:31:46.194Z,0.60
2023-02-15T06:34:13.294Z,0.70
2023-02-15T06:36:40.452Z,0.50
2023-02-15T06:39:09.665Z,0.57
2023-02-15T06:41:36.564Z,0.80
2023-02-15T06:44:03.682Z,0.90
2023-02-15T06:46:30.863Z,0.60
2023-02-15T06:48:57.928Z,0.87
2023-02-15T06:51:24.928Z,0.83
2023-02-15T06:53:51.983Z,0.90
2023-02-15T06:56:18.943Z,1.10
2023-02-15T06:58:50.672Z,1.20
2023-02-15T07:01:17.866Z,0.80
2023-02-15T07:03:44.924Z,0.87
2023-02-15T07:06:12.413Z,0.93
2023-02-15T07:08:40.622Z,0.97
2023-02-15T07:11:29.053Z,0.93
2023-02-15T07:13:56.021Z,1.20
2023-02-15T07:16:22.991Z,1.30
2023-02-15T07:18:53.101Z,2.40
2023-02-15T07:21:20.155Z,2.93
2023-02-15T07:23:47.156Z,2.80
2023-02-15T07:26:14.209Z,1.63
2023-02-15T07:28:41.170Z,1.40
2023-02-15T07:31:10.295Z,1.20
2023-02-15T07:33:37.380Z,1.20
2023-02-15T07:36:05.811Z,1.10
2023-02-15T07:38:35.744Z,1.00
2023-02-15T07:41:04.859Z,1.30
2023-02-15T07:43:34.533Z,1.13
2023-02-15T07:46:03.660Z,1.23
2023-02-15T07:48:30.812Z,1.00
2023-02-15T07:51:02.045Z,1.50
2023-02-15T07:53:29.318Z,1.87
2023-02-15T07:56:00.592Z,1.30
2023-02-15T07:58:48.145Z,1.10
2023-02-15T08:01:16.061Z,1.20
2023-02-15T08:03:43.077Z,1.23
2023-02-15T08:06:12.535Z,2.00
2023-02-15T08:08:40.134Z,2.87
2023-02-15T08:11:33.820Z,4.37
2023-02-15T08:14:04.894Z,4.33
2023-02-15T08:16:40.612Z,2.93
2023-02-15T08:19:11.414Z,1.67
2023-02-15T08:21:44.312Z,1.83
2023-02-15T08:24:12.793Z,2.00
2023-02-15T08:26:42.355Z,3.37
2023-02-15T08:29:11.769Z,4.00
2023-02-15T08:31:39.287Z,2.20
2023-02-15T08:34:07.051Z,1.30
2023-02-15T08:36:34.213Z,1.10
2023-02-15T08:39:04.471Z,1.50
2023-02-15T08:41:34.050Z,2.00
2023-02-15T08:44:04.542Z,2.17
2023-02-15T08:46:34.956Z,1.30
2023-02-15T08:49:02.514Z,1.27
2023-02-15T08:51:32.776Z,1.20
2023-02-15T08:54:02.688Z,1.30
2023-02-15T08:56:34.109Z,1.73
2023-02-15T08:59:01.888Z,1.70
2023-02-15T09:01:31.106Z,1.80
2023-02-15T09:04:01.061Z,1.50
2023-02-15T09:06:30.091Z,1.37
2023-02-15T09:08:57.606Z,1.67
2023-02-15T09:11:29.908Z,1.80
2023-02-15T09:13:58.352Z,1.40
2023-02-15T09:16:28.674Z,1.50
2023-02-15T09:18:55.899Z,1.63
2023-02-15T09:21:25.214Z,1.30
2023-02-15T09:23:56.542Z,1.30
2023-02-15T09:26:25.342Z,1.20
2023-02-15T09:28:57.967Z,1.47
2023-02-15T09:31:28.253Z,1.30
2023-02-15T09:33:55.642Z,1.30
2023-02-15T09:36:28.053Z,1.67
2023-02-15T09:39:04.892Z,1.23
2023-02-15T09:41:54.480Z,1.53
2023-02-15T09:44:58.883Z,1.60
2023-02-15T09:47:25.837Z,1.57
2023-02-15T09:50:15.585Z,1.40
2023-02-15T09:53:09.636Z,1.03
2023-02-15T09:55:57.942Z,1.20
2023-02-15T09:58:52.483Z,1.40
2023-02-15T10:01:40.663Z,1.13
2023-02-15T10:04:42.485Z,1.50
2023-02-15T10:07:46.691Z,1.47
2023-02-15T10:10:29.047Z,2.10
2023-02-15T10:12:59.087Z,1.50
2023-02-15T10:15:52.672Z,1.80
2023-02-15T10:18:54.767Z,1.60
2023-02-15T10:21:30.478Z,1.40
2023-02-15T10:24:16.936Z,1.43
2023-02-15T10:26:49.174Z,1.03
2023-02-15T10:29:33.930Z,14.60
2023-02-15T10:32:01.029Z,8.77
2023-02-15T10:34:38.646Z,2.17
2023-02-15T10:37:11.743Z,1.10
2023-02-15T10:39:50.870Z,0.83
2023-02-15T10:42:47.698Z,0.90
2023-02-15T10:45:49.209Z,0.67
2023-02-15T10:48:58.966Z,0.73
2023-02-15T10:51:47.015Z,0.60
2023-02-15T10:54:35.603Z,0.87
2023-02-15T10:57:29.851Z,0.70
2023-02-15T11:00:02.527Z,0.63
2023-02-15T11:02:39.822Z,0.60
2023-02-15T11:05:36.412Z,0.80
2023-02-15T11:08:08.324Z,0.50
2023-02-15T11:10:52.962Z,0.70
2023-02-15T11:13:23.392Z,0.23
2023-02-15T11:16:01.192Z,0.20
2023-02-15T11:18:40.764Z,0.40
2023-02-15T11:21:10.523Z,0.30
2023-02-15T11:23:42.868Z,0.33
2023-02-15T11:26:30.122Z,0.57
2023-02-15T11:29:09.165Z,0.27
2023-02-15T11:31:44.704Z,0.50
2023-02-15T11:34:37.644Z,0.40
2023-02-15T11:37:16.886Z,0.40
2023-02-15T11:39:45.449Z,0.30
2023-02-15T11:42:19.414Z,0.30
2023-02-15T11:45:18.168Z,0.40
2023-02-15T11:47:45.961Z,0.40
2023-02-15T11:50:19.413Z,0.30
2023-02-15T11:52:46.344Z,0.43
2023-02-15T11:55:22.568Z,0.30
2023-02-15T11:58:16.789Z,0.40
2023-02-15T12:00:47.164Z,0.50
2023-02-15T12:03:17.303Z,0.50
2023-02-15T12:05:48.166Z,0.40
2023-02-15T12:08:21.284Z,0.40
2023-02-15T12:11:13.432Z,0.30
2023-02-15T12:13:57.459Z,0.40
2023-02-15T12:16:25.114Z,0.40
2023-02-15T12:18:56.089Z,0.30
2023-02-15T12:21:40.840Z,0.40
2023-02-15T12:24:19.880Z,0.32
2023-02-15T12:27:00.158Z,0.47
2023-02-15T12:29:31.800Z,0.40
2023-02-15T12:31:59.652Z,0.38
2023-02-15T12:34:33.287Z,0.30
2023-02-15T12:37:11.399Z,0.50
2023-02-15T12:39:38.320Z,0.38
2023-02-15T12:42:17.302Z,0.98
2023-02-15T12:45:02.620Z,0.60
2023-02-15T12:47:32.319Z,0.73
2023-02-15T12:50:23.721Z,0.80
2023-02-15T12:52:52.613Z,0.57
2023-02-15T12:55:24.009Z,1.10
2023-02-15T12:58:35.014Z,2.30
2023-02-15T13:01:10.765Z,1.58
2023-02-15T13:03:40.810Z,0.70
2023-02-15T13:06:09.167Z,0.40
2023-02-15T13:08:44.669Z,0.70
2023-02-15T13:11:13.365Z,0.60
2023-02-15T13:13:54.449Z,0.47
2023-02-15T13:16:32.062Z,0.43
2023-02-15T13:19:03.768Z,0.40
2023-02-15T13:21:36.433Z,0.30
2023-02-15T13:24:13.463Z,0.40
2023-02-15T13:26:45.854Z,0.30
2023-02-15T13:29:24.296Z,0.50
2023-02-15T13:31:54.216Z,0.60
2023-02-15T13:34:32.609Z,0.40
2023-02-15T13:37:14.579Z,0.35
2023-02-15T13:39:50.198Z,0.60
2023-02-15T13:42:41.114Z,0.30
2023-02-15T13:45:34.973Z,0.40
2023-02-15T13:48:48.339Z,0.25
2023-02-15T13:51:44.398Z,0.40
2023-02-15T13:54:33.829Z,0.20
2023-02-15T13:57:30.848Z,0.20
2023-02-15T14:00:29.223Z,0.35
2023-02-15T14:03:36.810Z,0.40
2023-02-15T14:06:28.089Z,0.40
2023-02-15T14:09:21.544Z,0.20
2023-02-15T14:12:32.838Z,0.40
2023-02-15T14:15:02.973Z,0.32
2023-02-15T14:17:52.400Z,0.40
2023-02-15T14:20:26.389Z,0.32
2023-02-15T14:23:07.061Z,0.50
2023-02-15T14:25:49.564Z,0.52
2023-02-15T14:28:46.845Z,0.60
2023-02-15T14:31:16.334Z,0.70
2023-02-15T14:33:56.519Z,0.73
2023-02-15T14:36:26.081Z,0.77
2023-02-15T14:39:01.559Z,0.70
2023-02-15T14:41:54.924Z,0.77
2023-02-15T14:44:29.082Z,0.70
2023-02-15T14:47:21.521Z,0.50
2023-02-15T14:49:48.684Z,0.70
2023-02-15T14:52:15.701Z,0.50
2023-02-15T14:54:42.565Z,0.57
2023-02-15T14:57:09.501Z,0.50
2023-02-15T14:59:53.883Z,0.70
2023-02-15T15:02:28.844Z,0.57
2023-02-15T15:05:10.847Z,0.80
2023-02-15T15:07:51.110Z,0.70
2023-02-15T15:10:18.202Z,0.53
2023-02-15T15:12:55.705Z,0.77
2023-02-15T15:15:28.521Z,0.60
2023-02-15T15:18:00.247Z,0.80
2023-02-15T15:20:27.133Z,1.10
2023-02-15T15:23:15.751Z,1.47
2023-02-15T15:25:46.428Z,1.00
2023-02-15T15:28:35.107Z,1.40
2023-02-15T15:31:09.667Z,1.30
2023-02-15T15:33:45.448Z,0.97
2023-02-15T15:36:46.607Z,0.83
2023-02-15T15:39:16.600Z,0.90
2023-02-15T15:42:05.616Z,0.77
2023-02-15T15:44:54.004Z,0.60
2023-02-15T15:47:42.522Z,1.00
2023-02-15T15:50:19.964Z,1.37
2023-02-15T15:52:55.975Z,0.60
2023-02-15T15:55:29.195Z,1.38
2023-02-15T15:58:08.243Z,0.80
2023-02-15T16:00:46.301Z,0.77
2023-02-15T16:03:28.039Z,0.60
2023-02-15T16:05:56.718Z,0.70
2023-02-15T16:08:43.882Z,0.50
2023-02-15T16:11:31.171Z,0.70
2023-02-15T16:13:59.246Z,0.60
2023-02-15T16:16:29.733Z,0.50
2023-02-15T16:19:00.665Z,0.70
2023-02-15T16:21:34.689Z,0.70
2023-02-15T16:24:31.130Z,0.80
2023-02-15T16:27:25.163Z,0.70
2023-02-15T16:29:52.156Z,0.70
2023-02-15T16:32:29.120Z,0.60
2023-02-15T16:35:01.683Z,0.90
2023-02-15T16:37:34.288Z,0.60
2023-02-15T16:40:01.487Z,1.00
2023-02-15T16:42:29.010Z,0.70
2023-02-15T16:45:06.693Z,0.70
2023-02-15T16:47:41.567Z,1.00
2023-02-15T16:50:19.802Z,0.93
2023-02-15T16:52:46.998Z,0.93
2023-02-15T16:55:36.133Z,0.90
2023-02-15T16:58:06.882Z,0.80
2023-02-15T17:00:38.440Z,1.20
2023-02-15T17:03:25.379Z,0.90
2023-02-15T17:05:58.209Z,1.10
2023-02-15T17:08:42.488Z,1.43
2023-02-15T17:11:33.645Z,1.53
2023-02-15T17:14:04.304Z,1.80
2023-02-15T17:16:53.267Z,1.53
2023-02-15T17:19:28.684Z,1.50
2023-02-15T17:22:02.654Z,1.70
2023-02-15T17:24:38.181Z,1.73
2023-02-15T17:27:12.958Z,1.83
2023-02-15T17:29:47.397Z,2.20
2023-02-15T17:32:18.782Z,1.63
2023-02-15T17:34:47.000Z,1.70
2023-02-15T17:37:29.261Z,2.20
2023-02-15T17:39:57.244Z,2.00
2023-02-15T17:42:24.672Z,1.87
2023-02-15T17:44:52.043Z,1.80
2023-02-15T17:47:21.323Z,1.80
2023-02-15T17:49:50.377Z,1.70
2023-02-15T17:52:18.772Z,1.50
2023-02-15T17:55:05.252Z,1.80
2023-02-15T17:57:32.678Z,1.33
2023-02-15T18:00:18.583Z,1.93
2023-02-15T18:03:04.858Z,1.87
2023-02-15T18:05:50.813Z,2.17
2023-02-15T18:08:37.939Z,2.07
2023-02-15T18:11:26.130Z,1.87
2023-02-15T18:13:53.392Z,1.57
2023-02-15T18:16:23.221Z,2.20
2023-02-15T18:18:50.743Z,3.10
2023-02-15T18:21:18.054Z,2.87
2023-02-15T18:23:45.330Z,1.83
2023-02-15T18:26:17.973Z,2.20
2023-02-15T18:28:45.294Z,2.07
2023-02-15T18:31:13.617Z,2.00
2023-02-15T18:33:43.406Z,2.30
2023-02-15T18:36:15.523Z,1.90
2023-02-15T18:38:42.819Z,2.37
2023-02-15T18:41:16.083Z,2.13
2023-02-15T18:43:43.525Z,2.00
2023-02-15T18:46:10.989Z,1.97
2023-02-15T18:48:38.430Z,2.13
2023-02-15T18:51:08.450Z,2.23
2023-02-15T18:53:35.798Z,2.30
2023-02-15T18:56:03.132Z,2.50
2023-02-15T18:58:30.611Z,2.23
2023-02-15T19:01:00.332Z,2.60
2023-02-15T19:03:29.571Z,2.43
2023-02-15T19:05:56.961Z,2.30
2023-02-15T19:08:24.894Z,2.20
2023-02-15T19:10:52.946Z,2.17
2023-02-15T19:13:20.284Z,2.77
2023-02-15T19:15:47.768Z,2.77
2023-02-15T19:18:15.601Z,2.80
2023-02-15T19:20:44.931Z,2.70
2023-02-15T19:23:19.518Z,2.23
2023-02-15T19:25:47.892Z,2.30
2023-02-15T19:28:20.003Z,2.20
2023-02-15T19:30:47.411Z,3.07
2023-02-15T19:33:17.133Z,3.57
2023-02-15T19:35:45.694Z,3.43
2023-02-15T19:38:20.414Z,2.60
2023-02-15T19:40:47.928Z,3.00
2023-02-15T19:43:21.047Z,2.70
2023-02-15T19:45:49.021Z,2.50
2023-02-15T19:48:16.348Z,2.43
2023-02-15T19:50:44.122Z,2.17
2023-02-15T19:53:20.531Z,2.23
2023-02-15T19:55:47.858Z,2.60
2023-02-15T19:58:15.213Z,2.43
2023-02-15T20:00:42.604Z,2.40
2023-02-15T20:03:09.938Z,2.80
2023-02-15T20:05:40.288Z,3.10
2023-02-15T20:08:10.819Z,2.30
2023-02-15T20:10:39.370Z,2.57
2023-02-15T20:13:06.649Z,2.43
2023-02-15T20:15:35.288Z,2.67
2023-02-15T20:18:04.357Z,2.60
2023-02-15T20:20:35.617Z,2.63
2023-02-15T20:23:02.900Z,3.00
2023-02-15T20:25:31.811Z,2.47
2023-02-15T20:27:59.687Z,2.70
2023-02-15T20:30:33.546Z,2.80
2023-02-15T20:33:00.970Z,3.20
2023-02-15T20:35:31.325Z,2.40
2023-02-15T20:38:00.494Z,2.37
2023-02-15T20:40:30.490Z,2.30
2023-02-15T20:42:57.895Z,2.43
2023-02-15T20:45:26.531Z,2.70
2023-02-15T20:47:54.724Z,3.00
2023-02-15T20:50:40.080Z,3.30
2023-02-15T20:53:10.407Z,3.20
2023-02-15T20:55:37.684Z,3.00
2023-02-15T20:58:14.078Z,2.77
2023-02-15T21:00:41.351Z,2.20
2023-02-15T21:03:13.776Z,2.10
2023-02-15T21:05:41.490Z,2.03
2023-02-15T21:08:15.637Z,2.10
2023-02-15T21:10:45.529Z,2.17
2023-02-15T21:13:24.097Z,2.17
2023-02-15T21:15:52.055Z,1.83
2023-02-15T21:18:27.128Z,1.73
2023-02-15T21:20:56.060Z,2.20
2023-02-15T21:23:34.449Z,1.80
2023-02-15T21:26:02.176Z,1.83
2023-02-15T21:28:30.025Z,2.27
2023-02-15T21:30:58.624Z,3.77
2023-02-15T21:33:26.468Z,2.57
2023-02-15T21:35:55.097Z,2.40
2023-02-15T21:38:24.610Z,1.87
2023-02-15T21:40:52.166Z,1.90
2023-02-15T21:43:42.681Z,2.03
2023-02-15T21:46:33.084Z,1.90
2023-02-15T21:49:01.969Z,1.70
2023-02-15T21:51:56.770Z,2.00
2023-02-15T21:54:24.294Z,1.70
2023-02-15T21:56:54.146Z,1.40
2023-02-15T21:59:21.448Z,1.90
2023-02-15T22:01:50.443Z,1.80
2023-02-15T22:04:25.665Z,1.90
2023-02-15T22:06:53.167Z,2.03
2023-02-15T22:09:21.686Z,2.03
2023-02-15T22:11:49.691Z,1.87
2023-02-15T22:14:25.886Z,1.70
2023-02-15T22:16:53.248Z,1.53
2023-02-15T22:19:20.542Z,1.30
2023-02-15T22:21:47.852Z,1.30
2023-02-15T22:24:15.173Z,1.60
2023-02-15T22:26:42.563Z,1.57
2023-02-15T22:29:14.846Z,1.30
2023-02-15T22:31:42.297Z,1.93
2023-02-15T22:34:23.921Z,1.50
2023-02-15T22:36:51.321Z,1.60
2023-02-15T22:39:18.645Z,1.40
2023-02-15T22:41:46.129Z,1.50
2023-02-15T22:44:14.279Z,1.70
2023-02-15T22:46:41.648Z,1.50
2023-02-15T22:49:13.718Z,1.77
2023-02-15T22:51:41.045Z,1.67
2023-02-15T22:54:08.564Z,1.60
2023-02-15T22:56:38.044Z,1.80
2023-02-15T22:59:06.802Z,1.47
2023-02-15T23:01:35.517Z,1.27
2023-02-15T23:04:04.171Z,1.50
2023-02-15T23:06:32.161Z,1.50
2023-02-15T23:09:00.921Z,1.60
2023-02-15T23:11:28.643Z,1.63
2023-02-15T23:13:56.120Z,1.80
2023-02-15T23:16:23.528Z,1.40
2023-02-15T23:18:51.330Z,2.00
2023-02-15T23:21:21.730Z,1.77
2023-02-15T23:23:50.400Z,1.50
2023-02-15T23:26:19.321Z,1.60
2023-02-15T23:28:46.898Z,1.63
2023-02-15T23:31:17.263Z,1.30
2023-02-15T23:33:45.125Z,1.20
2023-02-15T23:36:25.521Z,1.30
2023-02-15T23:38:53.513Z,1.10
2023-02-15T23:41:23.092Z,1.27
2023-02-15T23:43:53.160Z,1.60
2023-02-15T23:46:25.611Z,1.40
2023-02-15T23:48:53.520Z,1.03
2023-02-15T23:51:21.969Z,1.20
2023-02-15T23:53:49.469Z,1.27
2023-02-15T23:56:17.040Z,1.20
2023-02-15T23:58:45.774Z,1.10
